Date,TemperatureHighF,TemperatureAvgF,TemperatureLowF,DewpointHighF,DewpointAvgF,DewpointLowF,HumidityHigh,HumidityAvg,HumidityLow,PressureMaxIn,PressureMinIn,WindSpeedMaxMPH,WindSpeedAvgMPH,GustSpeedMaxMPH,PrecipitationSumIn
2013-4-1,55,39,29,44,33,11,99,80,40,29.64,29.39,14,2,23,0.22
2013-4-2,34,28,24,19,14,9,72,55,38,29.76,29.64,14,4,24,0.00
2013-4-3,43,31,23,17,14,-22,68,49,10,30.00,29.74,107,4,107,0.00
2013-4-4,53,37,26,26,16,12,65,46,20,30.12,29.86,7,2,12,0.00
2013-4-5,55,42,33,29,25,16,84,55,24,29.87,29.54,11,3,20,0.00
2013-4-6,43,31,25,25,11,-4,71,47,17,30.16,29.75,14,4,23,0.00
2013-4-7,56,39,24,41,24,9,93,56,29,30.15,29.83,8,2,17,0.00
2013-4-8,63,48,37,42,37,28,99,71,29,29.95,29.81,9,2,14,0.00
2013-4-9,64,51,40,52,44,40,99,78,50,29.92,29.75,12,2,22,0.01
2013-4-10,61,50,43,51,47,42,99,92,68,29.88,29.73,6,1,9,0.63
2013-4-11,48,44,41,46,40,30,99,86,57,29.91,29.72,8,2,12,0.05
2013-4-12,43,32,30,32,32,30,99,99,61,29.97,29.64,7,1,14,0.09
2013-4-13,51,40,32,41,35,31,99,84,52,29.81,29.62,8,1,13,0.13
2013-4-14,48,40,29,37,32,25,99,75,49,30.08,29.77,11,2,20,0.00
2013-4-15,58,42,25,37,32,24,99,69,41,30.22,30.07,4,1,8,0.00
2013-4-16,64,48,32,52,41,29,99,77,51,30.23,29.92,11,2,18,0.04
2013-4-17,61,51,38,52,35,28,99,59,31,30.20,29.94,12,3,18,0.00
2013-4-18,61,48,30,46,33,28,93,58,36,30.27,29.99,8,2,15,0.00
2013-4-19,71,60,48,63,57,46,99,90,66,30.00,29.51,11,3,21,0.04
2013-4-20,62,47,35,62,37,20,99,71,42,30.09,29.51,14,4,24,0.21
2013-4-21,50,37,28,25,20,12,82,52,23,30.50,30.09,11,2,17,0.00
2013-4-22,52,39,25,31,26,18,95,64,30,30.58,30.42,7,2,13,0.00
2013-4-23,38,35,33,38,34,30,99,96,87,30.42,29.97,5,2,11,0.00
2013-4-24,72,54,37,50,43,34,99,72,28,29.97,29.67,8,2,15,0.17
2013-4-25,58,48,33,50,34,23,99,63,28,30.15,29.69,11,3,21,0.01
2013-4-26,58,44,29,40,32,28,98,64,38,30.24,29.91,7,1,10,0.00
2013-4-27,64,49,30,41,34,26,99,62,25,30.00,29.86,7,0,9,0.00
2013-4-28,70,53,32,42,36,20,99,57,25,29.92,29.78,73,1,73,0.00
2013-4-29,67,53,42,47,39,25,88,62,33,29.98,29.77,5,1,11,0.06
2013-4-30,69,60,43,39,28,24,69,31,20,30.08,29.97,5,1,8,0.07